Time;durP1;ratioP1;P1;durP2;ratioP2;P2;SDS_P1;SDS_P2;PMS_P1;PMS_P2;Temp;Humidity;BMP_temperature;BMP_pressure;BME280_temperature;BME280_humidity;BME280_pressure;Samples;Min_cycle;Max_cycle;Signal;HPM_P1;HPM_P2
2022/09/14 15:51:27;;;;;;;6.17;5.60;;;16.40;99.90;;;;;;5153147;27;20574;-87
2022/09/14 15:53:54;;;;;;;11.50;7.67;;;16.50;99.90;;;;;;5153437;27;20199;-87
2022/09/14 15:56:21;;;;;;;12.07;7.87;;;16.40;99.90;;;;;;5153126;27;20217;-87
2022/09/14 15:58:47;;;;;;;9.18;8.07;;;16.30;99.90;;;;;;5152614;27;20426;-88
2022/09/14 16:01:16;;;;;;;7.40;6.77;;;16.40;99.90;;;;;;5158205;27;20289;-87
2022/09/14 16:03:44;;;;;;;6.70;6.10;;;16.50;99.90;;;;;;5157683;27;20197;-87
2022/09/14 16:06:12;;;;;;;7.30;5.93;;;16.50;99.90;;;;;;5161446;27;20305;-87
2022/09/14 16:08:41;;;;;;;10.27;8.07;;;16.40;99.90;;;;;;5153585;27;20202;-87
2022/09/14 16:11:09;;;;;;;6.33;5.83;;;16.40;99.90;;;;;;5154319;27;20209;-84
2022/09/14 16:13:36;;;;;;;7.93;6.10;;;16.40;99.90;;;;;;5154550;27;20655;-83
2022/09/14 16:16:06;;;;;;;7.40;5.67;;;16.40;99.90;;;;;;5153229;27;20210;-85
2022/09/14 16:18:33;;;;;;;7.67;6.87;;;16.50;99.90;;;;;;5154034;27;20205;-85
2022/09/14 16:21:07;;;;;;;9.27;6.40;;;16.30;99.90;;;;;;5152442;27;20220;-87
2022/09/14 16:23:36;;;;;;;9.23;7.17;;;16.30;99.90;;;;;;5152727;27;20210;-86
2022/09/14 16:26:09;;;;;;;7.43;6.73;;;16.20;99.90;;;;;;5153400;27;20205;-87
2022/09/14 16:28:36;;;;;;;8.33;7.00;;;16.20;99.90;;;;;;5153260;27;20293;-87
2022/09/14 16:31:07;;;;;;;11.03;7.77;;;16.30;99.90;;;;;;5153819;27;20193;-88
2022/09/14 16:33:38;;;;;;;11.83;7.77;;;16.20;99.90;;;;;;5152940;27;20197;-86
2022/09/14 16:36:07;;;;;;;8.80;7.87;;;15.90;99.90;;;;;;5160336;27;20187;-87
2022/09/14 16:38:35;;;;;;;9.40;8.40;;;15.90;99.90;;;;;;5169267;27;20207;-84
2022/09/14 16:41:02;;;;;;;9.57;8.17;;;15.80;99.90;;;;;;5162089;27;20233;-83
2022/09/14 16:43:33;;;;;;;9.00;8.10;;;15.90;99.90;;;;;;5170239;27;20231;-87
2022/09/14 16:46:02;;;;;;;8.13;7.33;;;15.90;99.90;;;;;;5149316;27;20193;-87
2022/09/14 16:48:30;;;;;;;8.43;7.63;;;15.80;99.90;;;;;;5143902;27;20219;-87
2022/09/14 16:50:57;;;;;;;9.73;7.47;;;16.00;99.90;;;;;;5135716;27;20544;-85
2022/09/14 16:53:24;;;;;;;8.93;8.07;;;16.00;99.90;;;;;;5126515;27;20202;-86
2022/09/14 16:55:51;;;;;;;8.20;7.40;;;16.00;99.90;;;;;;5129248;27;20206;-86
2022/09/14 16:58:17;;;;;;;9.73;8.60;;;15.90;99.90;;;;;;5128650;27;20200;-84
2022/09/14 17:00:47;;;;;;;11.27;9.33;;;15.80;99.90;;;;;;5125357;27;20226;-86
2022/09/14 17:03:13;;;;;;;12.50;10.70;;;15.90;99.90;;;;;;5128186;27;20279;-88
2022/09/14 17:05:46;;;;;;;12.50;9.30;;;15.80;99.90;;;;;;5121456;27;20202;-88
2022/09/14 17:08:19;;;;;;;10.83;9.47;;;15.80;99.90;;;;;;5118478;28;20586;-88
2022/09/14 17:10:52;;;;;;;11.13;9.33;;;15.90;99.90;;;;;;5118980;28;20201;-89
2022/09/14 17:13:22;;;;;;;9.50;8.60;;;15.90;99.90;;;;;;5118695;28;20204;-90
2022/09/14 17:16:02;;;;;;;9.50;8.70;;;15.90;99.90;;;;;;5118595;28;20202;-90
2022/09/14 17:18:30;;;;;;;10.03;9.23;;;15.70;99.90;;;;;;5118142;28;20206;-87
2022/09/14 17:21:00;;;;;;;11.17;10.10;;;15.80;99.90;;;;;;5117969;28;20230;-88
2022/09/14 17:23:29;;;;;;;12.33;11.13;;;15.90;99.90;;;;;;5117607;28;20203;-87
2022/09/14 17:25:59;;;;;;;12.37;11.17;;;15.80;99.90;;;;;;5117466;28;20208;-87
2022/09/14 17:28:30;;;;;;;13.70;12.30;;;15.70;99.90;;;;;;5117664;28;20198;-88
2022/09/14 17:30:59;;;;;;;12.80;11.70;;;15.80;99.90;;;;;;5117008;28;20197;-87
2022/09/14 17:33:29;;;;;;;13.30;12.07;;;15.80;99.90;;;;;;5117164;28;20194;-88
2022/09/14 17:35:58;;;;;;;13.67;12.37;;;15.70;99.90;;;;;;5117566;28;20197;-87
2022/09/14 17:38:31;;;;;;;13.80;12.40;;;15.70;99.90;;;;;;5116909;28;20202;-87
2022/09/14 17:41:03;;;;;;;15.40;13.90;;;15.80;99.90;;;;;;5116428;28;20233;-87
2022/09/14 17:43:33;;;;;;;16.07;14.57;;;15.80;99.90;;;;;;5117194;28;20201;-87
2022/09/14 17:46:05;;;;;;;15.17;12.87;;;15.80;99.90;;;;;;5118063;28;20240;-86
2022/09/14 17:48:41;;;;;;;13.13;11.83;;;15.70;99.90;;;;;;5117076;27;20246;-86
2022/09/14 17:51:13;;;;;;;12.93;11.63;;;15.80;99.90;;;;;;5118002;28;20257;-88
2022/09/14 17:53:43;;;;;;;12.40;11.07;;;15.80;99.90;;;;;;5120244;28;20262;-88
2022/09/14 17:56:13;;;;;;;13.13;11.90;;;15.80;99.90;;;;;;5116741;28;20536;-87
2022/09/14 17:58:42;;;;;;;12.77;11.50;;;15.70;99.90;;;;;;5116008;28;20203;-88
2022/09/14 18:01:11;;;;;;;16.50;11.97;;;15.80;99.90;;;;;;5116012;28;20723;-86
2022/09/14 18:03:41;;;;;;;11.30;10.23;;;15.80;99.90;;;;;;5114208;28;20216;-89
2022/09/14 18:06:10;;;;;;;12.43;10.87;;;15.80;99.90;;;;;;5115830;28;20213;-86
2022/09/14 18:08:37;;;;;;;12.53;11.33;;;15.70;99.90;;;;;;5117355;27;20262;-88
2022/09/14 18:11:06;;;;;;;12.97;11.63;;;15.80;99.90;;;;;;5134019;27;20196;-88
2022/09/14 18:13:33;;;;;;;14.80;13.30;;;15.70;99.90;;;;;;5136414;27;20438;-88
2022/09/14 18:16:00;;;;;;;16.27;12.50;;;15.60;99.90;;;;;;5136607;27;20210;-89
2022/09/14 18:18:27;;;;;;;15.57;12.87;;;15.70;99.90;;;;;;5136554;27;20203;-88
2022/09/14 18:20:58;;;;;;;13.83;12.43;;;15.70;99.90;;;;;;5136686;27;20217;-89
2022/09/14 18:23:25;;;;;;;14.27;12.80;;;15.70;99.90;;;;;;5136699;27;20265;-88
2022/09/14 18:25:53;;;;;;;13.70;12.30;;;15.60;99.90;;;;;;5136498;27;20661;-87
2022/09/14 18:28:20;;;;;;;13.07;11.73;;;15.60;99.90;;;;;;5136435;27;20211;-88
2022/09/14 18:30:47;;;;;;;15.13;13.47;;;15.70;99.90;;;;;;5136695;27;20205;-87
2022/09/14 18:33:14;;;;;;;15.40;13.60;;;15.80;99.90;;;;;;5136267;27;20298;-87
2022/09/14 18:35:41;;;;;;;15.27;13.80;;;15.80;99.90;;;;;;5137300;27;20194;-87
2022/09/14 18:38:11;;;;;;;18.00;15.33;;;15.80;99.90;;;;;;5134855;27;20243;-87
2022/09/14 18:40:38;;;;;;;15.97;14.33;;;15.80;99.90;;;;;;5135328;27;20234;-87
2022/09/14 18:43:05;;;;;;;16.67;14.90;;;15.80;99.90;;;;;;5135701;27;20566;-89
2022/09/14 18:45:34;;;;;;;19.23;15.50;;;15.80;99.90;;;;;;5135899;27;20212;-87
2022/09/14 18:48:01;;;;;;;17.30;15.33;;;15.80;99.90;;;;;;5135546;27;20210;-88
2022/09/14 18:50:28;;;;;;;17.47;15.27;;;16.00;99.90;;;;;;5135504;27;20213;-87
2022/09/14 18:52:55;;;;;;;16.27;13.30;;;15.80;99.90;;;;;;5134919;27;20212;-84
2022/09/14 18:55:23;;;;;;;12.93;11.43;;;15.90;99.90;;;;;;5123526;27;20205;-88
2022/09/14 18:57:50;;;;;;;11.47;10.30;;;15.80;99.90;;;;;;5120165;27;20232;-85
2022/09/14 19:00:18;;;;;;;11.70;10.50;;;15.90;99.90;;;;;;5123419;27;20247;-84
2022/09/14 19:02:51;;;;;;;10.43;9.23;;;15.90;99.90;;;;;;5125336;27;20208;-88
2022/09/14 19:05:19;;;;;;;14.50;10.67;;;16.00;99.90;;;;;;5132252;27;20197;-85
2022/09/14 19:07:46;;;;;;;14.87;11.53;;;15.90;99.90;;;;;;5114430;28;20672;-94
2022/09/14 19:10:13;;;;;;;13.63;11.40;;;16.00;99.90;;;;;;5116929;28;20210;-91
2022/09/14 19:12:43;;;;;;;11.10;10.00;;;16.00;99.90;;;;;;5126875;27;20199;-85
2022/09/14 19:15:11;;;;;;;15.07;11.03;;;16.00;99.90;;;;;;5115900;28;20290;-89
2022/09/14 19:17:38;;;;;;;13.07;11.77;;;16.10;99.90;;;;;;5120644;28;20607;-85
2022/09/14 19:20:08;;;;;;;11.50;10.20;;;15.90;99.90;;;;;;5129038;27;20613;-95
2022/09/14 19:22:35;;;;;;;17.23;11.63;;;16.00;99.90;;;;;;5114555;28;20214;-86
2022/09/14 19:25:02;;;;;;;14.10;12.00;;;16.00;99.90;;;;;;5114522;28;20314;-85
2022/09/14 19:27:29;;;;;;;13.10;11.00;;;16.10;99.90;;;;;;5118418;27;20192;-91
2022/09/14 19:29:58;;;;;;;12.17;10.87;;;16.20;99.90;;;;;;5125019;27;20203;-86
2022/09/14 19:32:25;;;;;;;13.73;11.03;;;16.20;99.90;;;;;;5114686;28;20728;-87
2022/09/14 19:34:54;;;;;;;15.00;13.50;;;16.10;99.90;;;;;;5113341;28;20409;-93
2022/09/14 19:37:29;;;;;;;19.40;14.27;;;16.40;99.90;;;;;;5120341;28;20336;-91
2022/09/14 19:39:56;;;;;;;13.13;11.83;;;16.20;99.90;;;;;;5122888;28;20198;-91
2022/09/14 19:42:25;;;;;;;16.40;12.40;;;16.10;99.90;;;;;;5128676;28;20214;-93
2022/09/14 19:44:51;;;;;;;16.97;12.17;;;16.10;99.90;;;;;;5129694;28;20289;-87
2022/09/14 19:47:25;;;;;;;14.90;13.00;;;16.10;99.90;;;;;;5126837;28;20214;-89
2022/09/14 19:49:52;;;;;;;17.97;16.03;;;16.20;99.90;;;;;;5122820;28;20218;-91
2022/09/14 19:52:19;;;;;;;20.60;16.27;;;16.20;99.90;;;;;;5121892;28;20210;-92
2022/09/14 19:54:52;;;;;;;23.07;18.57;;;16.10;99.90;;;;;;5118217;28;20205;-93
2022/09/14 19:57:19;;;;;;;25.47;19.73;;;16.10;99.90;;;;;;5137323;28;20269;-90
2022/09/14 19:59:46;;;;;;;25.80;20.77;;;16.20;99.90;;;;;;5127658;28;20205;-91
2022/09/14 20:02:19;;;;;;;34.40;27.77;;;16.10;99.90;;;;;;5113748;28;20433;-94
2022/09/14 20:04:53;;;;;;;29.17;23.30;;;16.10;99.90;;;;;;5122832;28;20265;-93
2022/09/14 20:07:20;;;;;;;31.50;24.93;;;16.20;99.90;;;;;;5122770;28;20211;-90
2022/09/14 20:09:53;;;;;;;34.57;25.17;;;16.20;99.90;;;;;;5120652;28;20575;-92
2022/09/14 20:12:21;;;;;;;37.50;27.00;;;16.10;99.90;;;;;;5122561;28;20257;-92
2022/09/14 20:14:54;;;;;;;34.73;27.63;;;16.10;99.90;;;;;;5119760;28;20197;-89
2022/09/14 20:17:23;;;;;;;37.90;28.00;;;15.90;99.90;;;;;;5135200;28;20208;-92
2022/09/14 20:19:54;;;;;;;39.73;28.93;;;16.00;99.90;;;;;;5134608;28;20207;-92
2022/09/14 20:22:22;;;;;;;39.13;29.87;;;15.80;99.90;;;;;;5135131;28;20203;-91
2022/09/14 20:24:55;;;;;;;38.43;28.07;;;15.80;99.90;;;;;;5130893;28;20202;-92
2022/09/14 20:27:25;;;;;;;39.07;28.80;;;15.70;99.90;;;;;;5128800;27;20203;-92
2022/09/14 20:29:54;;;;;;;36.20;28.03;;;15.50;99.90;;;;;;5138587;27;20208;-93
2022/09/14 20:32:24;;;;;;;35.60;28.10;;;15.40;99.90;;;;;;5139150;27;20662;-92
2022/09/14 20:34:59;;;;;;;34.67;26.43;;;15.30;99.90;;;;;;5121405;27;20254;-92
2022/09/14 20:37:30;;;;;;;41.13;28.07;;;15.30;99.90;;;;;;5118621;28;20204;-92
2022/09/14 20:40:17;;;;;;;38.50;28.17;;;15.20;99.90;;;;;;5131978;27;20556;-88
2022/09/14 20:42:46;;;;;;;44.57;30.17;;;15.20;99.90;;;;;;5131080;27;20234;-91
2022/09/14 20:45:19;;;;;;;52.10;35.90;;;15.20;99.90;;;;;;5118806;28;20208;-89
2022/09/14 20:47:47;;;;;;;65.23;46.57;;;15.30;99.90;;;;;;5117939;28;20674;-88
2022/09/14 20:50:17;;;;;;;97.00;56.27;;;15.30;99.90;;;;;;5117391;28;20228;-88
2022/09/14 20:52:45;;;;;;;86.53;50.63;;;15.30;99.90;;;;;;5117925;28;20227;-89
2022/09/14 20:55:17;;;;;;;62.07;38.80;;;15.10;99.90;;;;;;5129459;27;20204;-90
2022/09/14 20:57:46;;;;;;;49.77;32.13;;;15.20;99.90;;;;;;5119485;27;20204;-92
2022/09/14 21:00:16;;;;;;;42.47;28.93;;;15.10;99.90;;;;;;5117674;28;20205;-94
2022/09/14 21:02:50;;;;;;;32.37;25.77;;;15.10;99.90;;;;;;5119904;27;20223;-93
2022/09/14 21:05:24;;;;;;;31.57;24.43;;;15.00;99.90;;;;;;5118310;28;20213;-93
2022/09/14 21:07:57;;;;;;;32.87;23.63;;;15.10;99.90;;;;;;5118450;28;20696;-93
2022/09/14 21:10:27;;;;;;;31.70;23.30;;;15.00;99.90;;;;;;5123931;27;20224;-91
2022/09/14 21:13:00;;;;;;;28.37;23.23;;;15.20;99.90;;;;;;5137960;27;20291;-92
2022/09/14 21:15:28;;;;;;;31.17;22.90;;;15.30;99.90;;;;;;5118610;27;20207;-90
2022/09/14 21:17:58;;;;;;;27.73;23.00;;;15.20;99.90;;;;;;5117292;28;20597;-92
2022/09/14 21:20:30;;;;;;;30.10;23.00;;;15.20;99.90;;;;;;5118346;28;20207;-89
2022/09/14 21:22:59;;;;;;;30.27;23.13;;;15.30;99.90;;;;;;5123815;28;20240;-89
2022/09/14 21:25:37;;;;;;;28.53;22.77;;;15.20;99.90;;;;;;5132101;27;20211;-89
2022/09/14 21:28:07;;;;;;;34.57;22.67;;;15.20;99.90;;;;;;5117321;28;20204;-88
2022/09/14 21:30:35;;;;;;;30.03;23.07;;;15.20;99.90;;;;;;5131787;27;20564;-89
2022/09/14 21:33:07;;;;;;;29.40;23.63;;;15.10;99.90;;;;;;5116958;28;20204;-91
2022/09/14 21:35:38;;;;;;;26.97;21.77;;;15.10;99.90;;;;;;5117023;28;20211;-92
2022/09/14 21:38:05;;;;;;;31.87;23.17;;;14.90;99.90;;;;;;5117479;28;20218;-93
2022/09/14 21:40:31;;;;;;;31.03;22.87;;;15.00;99.90;;;;;;5119561;27;20231;-91
2022/09/14 21:43:04;;;;;;;32.50;23.40;;;15.00;99.90;;;;;;5130210;27;20227;-91
2022/09/14 21:45:31;;;;;;;34.17;23.97;;;15.00;99.90;;;;;;5116888;28;20208;-92
2022/09/14 21:47:58;;;;;;;31.77;22.43;;;14.90;99.90;;;;;;5116329;28;20204;-94
2022/09/14 21:50:30;;;;;;;29.10;21.97;;;14.80;99.90;;;;;;5116624;28;20215;-93
2022/09/14 21:53:01;;;;;;;28.03;23.30;;;14.80;99.90;;;;;;5117326;28;20578;-93
2022/09/14 21:55:38;;;;;;;34.83;24.53;;;14.80;99.90;;;;;;5116333;28;20212;-92
2022/09/14 21:58:11;;;;;;;30.87;24.83;;;14.90;99.90;;;;;;5122948;27;20659;-93
2022/09/14 22:00:56;;;;;;;32.60;23.67;;;14.90;99.90;;;;;;5123586;27;20208;-91
2022/09/14 22:03:24;;;;;;;35.67;23.57;;;14.80;99.90;;;;;;5122524;27;20211;-91
2022/09/14 22:06:02;;;;;;;30.43;22.83;;;14.70;99.90;;;;;;5127323;27;20251;-89
2022/09/14 22:08:38;;;;;;;29.00;21.83;;;14.70;99.90;;;;;;5116300;28;20214;-91
2022/09/14 22:11:13;;;;;;;32.63;24.87;;;14.70;99.90;;;;;;5119188;27;20203;-93
2022/09/14 22:13:40;;;;;;;34.67;24.47;;;14.80;99.90;;;;;;5117441;27;20198;-85
2022/09/14 22:16:09;;;;;;;36.23;25.07;;;14.80;99.90;;;;;;5114065;28;20209;-84
2022/09/14 22:18:37;;;;;;;34.27;25.10;;;14.70;99.90;;;;;;5114622;28;20206;-85
2022/09/14 22:21:05;;;;;;;31.53;23.73;;;14.70;99.90;;;;;;5114212;28;20219;-84
2022/09/14 22:23:34;;;;;;;33.47;23.77;;;14.50;99.90;;;;;;5114804;28;20215;-85
2022/09/14 22:26:08;;;;;;;31.20;23.60;;;14.60;99.90;;;;;;5114761;28;20215;-85
2022/09/14 22:28:34;;;;;;;35.70;23.93;;;14.50;99.90;;;;;;5115064;28;20299;-84
2022/09/14 22:31:05;;;;;;;34.13;24.93;;;14.50;99.90;;;;;;5114631;28;20657;-84
2022/09/14 22:33:32;;;;;;;35.63;24.63;;;14.50;99.90;;;;;;5115093;28;20207;-83
2022/09/14 22:36:01;;;;;;;29.90;23.13;;;14.50;99.90;;;;;;5114449;28;20221;-85
2022/09/14 22:38:30;;;;;;;36.80;24.77;;;14.60;99.90;;;;;;5114574;28;20200;-84
2022/09/14 22:40:59;;;;;;;33.33;23.77;;;14.60;99.90;;;;;;5114503;28;20221;-85
2022/09/14 22:43:28;;;;;;;32.57;24.63;;;14.60;99.90;;;;;;5114740;28;20227;-86
2022/09/14 22:45:56;;;;;;;32.20;23.97;;;14.60;99.90;;;;;;5114228;28;20665;-85
2022/09/14 22:48:23;;;;;;;35.43;22.63;;;14.60;99.90;;;;;;5114028;28;20205;-85
2022/09/14 22:50:52;;;;;;;32.47;23.23;;;14.50;99.90;;;;;;5114436;28;20670;-84
2022/09/14 22:53:20;;;;;;;32.70;23.50;;;14.50;99.90;;;;;;5114753;28;20203;-83
2022/09/14 22:55:47;;;;;;;32.57;23.73;;;14.50;99.90;;;;;;5114535;28;20204;-85
2022/09/14 22:58:17;;;;;;;33.77;23.90;;;14.40;99.90;;;;;;5114321;28;20203;-83
2022/09/14 23:00:47;;;;;;;35.20;24.83;;;14.60;99.90;;;;;;5114116;28;20217;-84
2022/09/14 23:03:16;;;;;;;40.40;27.17;;;14.40;99.90;;;;;;5114304;28;20203;-84
2022/09/14 23:05:49;;;;;;;41.33;26.83;;;14.30;99.90;;;;;;5114535;28;20200;-84
2022/09/14 23:08:17;;;;;;;39.37;25.47;;;14.30;99.90;;;;;;5114608;28;20212;-83
2022/09/14 23:10:45;;;;;;;43.13;27.73;;;14.30;99.90;;;;;;5114993;28;20569;-83
2022/09/14 23:13:12;;;;;;;49.85;35.63;;;14.30;99.90;;;;;;5113599;28;20439;-86
2022/09/14 23:15:39;;;;;;;42.67;28.93;;;14.50;99.90;;;;;;5118643;28;20203;-84
2022/09/14 23:18:08;;;;;;;39.60;28.00;;;14.50;99.90;;;;;;5118622;28;20208;-83
2022/09/14 23:20:36;;;;;;;36.30;25.57;;;14.50;99.90;;;;;;5117367;28;20214;-84
2022/09/14 23:23:04;;;;;;;36.17;25.87;;;14.40;99.90;;;;;;5118513;28;20222;-84
2022/09/14 23:25:32;;;;;;;34.63;24.97;;;14.30;99.90;;;;;;5118157;28;20207;-83
2022/09/14 23:28:00;;;;;;;40.97;26.77;;;14.20;99.90;;;;;;5118548;28;20678;-84
2022/09/14 23:30:28;;;;;;;35.57;24.93;;;14.20;99.90;;;;;;5116407;28;20207;-84
2022/09/14 23:32:55;;;;;;;36.50;23.27;;;14.30;99.90;;;;;;5114260;28;20209;-84
2022/09/14 23:35:23;;;;;;;37.67;24.27;;;14.30;99.90;;;;;;5113855;28;20207;-83
2022/09/14 23:37:54;;;;;;;34.77;24.17;;;14.00;99.90;;;;;;5113882;28;20202;-84
2022/09/14 23:40:23;;;;;;;37.37;23.70;;;14.10;99.90;;;;;;5115350;28;20210;-84
2022/09/14 23:42:51;;;;;;;32.33;23.40;;;14.20;99.90;;;;;;5114928;28;20238;-83
2022/09/14 23:45:18;;;;;;;34.27;24.47;;;14.20;99.90;;;;;;5115621;28;20203;-84
2022/09/14 23:47:48;;;;;;;32.67;23.53;;;14.30;99.90;;;;;;5114577;28;20669;-85
2022/09/14 23:50:15;;;;;;;33.53;24.03;;;14.30;99.90;;;;;;5113988;28;20226;-84
2022/09/14 23:52:43;;;;;;;37.40;24.93;;;14.40;99.90;;;;;;5113787;28;20207;-84
2022/09/14 23:55:11;;;;;;;33.43;22.87;;;14.40;99.90;;;;;;5113961;28;20204;-82
2022/09/14 23:57:41;;;;;;;32.43;21.63;;;14.40;99.90;;;;;;5113631;28;20211;-83
